Time;durP1;ratioP1;P1;durP2;ratioP2;P2;SDS_P1;SDS_P2;PMS_P1;PMS_P2;Temp;Humidity;BMP_temperature;BMP_pressure;BME280_temperature;BME280_humidity;BME280_pressure;Samples;Min_cycle;Max_cycle;Signal;HPM_P1;HPM_P2
2023/01/18 00:01:00;;;;;;;;;;;;;;;2.15;80.13;95353.94;7382941;19;19922;-79
2023/01/18 00:03:26;;;;;;;;;;;;;;;2.25;79.80;95355.50;7380837;19;19919;-80
2023/01/18 00:05:53;;;;;;;;;;;;;;;2.12;80.07;95359.53;7385129;19;19914;-80
2023/01/18 00:08:19;;;;;;;;;;;;;;;2.03;79.90;95360.59;7384286;19;19914;-80
2023/01/18 00:10:46;;;;;;;;;;;;;;;2.14;79.91;95359.34;7385360;19;20347;-80
2023/01/18 00:13:13;;;;;;;;;;;;;;;2.14;79.91;95359.34;7386864;19;19914;-80
2023/01/18 00:15:39;;;;;;;;;;;;;;;2.05;80.01;95363.81;7380732;19;19918;-80
2023/01/18 00:18:06;;;;;;;;;;;;;;;2.12;79.84;95358.72;7379609;19;19919;-79
2023/01/18 00:20:32;;;;;;;;;;;;;;;2.18;79.76;95360.59;7383032;19;19918;-80
2023/01/18 00:23:00;;;;;;;;;;;;;;;2.10;79.84;95363.28;7382615;19;19923;-80
2023/01/18 00:25:27;;;;;;;;;;;;;;;2.00;79.94;95360.94;7381727;19;19914;-79
2023/01/18 00:27:54;;;;;;;;;;;;;;;1.96;80.19;95365.69;7382405;19;20336;-80
2023/01/18 00:30:22;;;;;;;;;;;;;;;2.03;80.29;95368.41;7384768;19;19925;-80
2023/01/18 00:32:53;;;;;;;;;;;;;;;2.04;80.21;95370.03;7377253;19;20348;-80
2023/01/18 00:35:21;;;;;;;;;;;;;;;2.04;80.38;95367.41;7382517;19;20392;-79
2023/01/18 00:37:48;;;;;;;;;;;;;;;1.85;80.73;95370.53;7378320;19;19918;-80
2023/01/18 00:40:14;;;;;;;;;;;;;;;1.81;80.66;95371.84;7383653;19;20387;-80
2023/01/18 00:45:26;;;;;;;;;;;;;;;1.96;80.60;95370.09;7383939;19;19919;-80
2023/01/18 00:47:53;;;;;;;;;;;;;;;2.06;80.55;95373.28;7378268;19;19925;-80
2023/01/18 00:50:21;;;;;;;;;;;;;;;2.18;80.04;95369.25;7384126;19;19919;-80
2023/01/18 00:52:48;;;;;;;;;;;;;;;2.18;79.85;95371.03;7383977;19;19922;-80
2023/01/18 00:55:15;;;;;;;;;;;;;;;1.90;80.59;95366.41;7385988;19;19922;-80
2023/01/18 00:57:42;;;;;;;;;;;;;;;2.11;80.21;95376.16;7378888;19;19926;-80
2023/01/18 01:00:10;;;;;;;;;;;;;;;2.20;80.01;95372.47;7385932;19;19910;-80
2023/01/18 01:02:40;;;;;;;;;;;;;;;2.05;80.18;95373.44;7380736;19;19922;-81
2023/01/18 01:08:02;;;;;;;;;;;;;;;1.66;81.20;95385.66;7381817;19;19974;-80
2023/01/18 01:10:29;;;;;;;;;;;;;;;1.80;80.62;95380.66;7383455;19;20396;-80
2023/01/18 01:26:42;;;;;;;;;;;;;;;2.17;79.71;95393.72;7376054;19;20350;-81
2023/01/18 01:29:09;;;;;;;;;;;;;;;2.08;79.56;95406.97;7377877;19;20351;-80
2023/01/18 01:31:37;;;;;;;;;;;;;;;1.86;80.12;95401.63;7378026;19;19911;-81
2023/01/18 01:34:04;;;;;;;;;;;;;;;1.85;80.31;95404.41;7374889;19;19922;-81
2023/01/18 01:36:30;;;;;;;;;;;;;;;1.97;80.22;95410.81;7379021;19;19910;-80
2023/01/18 01:38:57;;;;;;;;;;;;;;;2.08;79.88;95413.03;7376394;19;20241;-80
2023/01/18 01:41:25;;;;;;;;;;;;;;;1.96;80.12;95411.81;7379493;19;19982;-81
2023/01/18 01:44:03;;;;;;;;;;;;;;;2.09;79.94;95412.03;7379012;19;19915;-81
2023/01/18 01:46:48;;;;;;;;;;;;;;;1.97;79.96;95403.00;7377102;19;19930;-80
2023/01/18 01:49:22;;;;;;;;;;;;;;;2.06;79.93;95409.78;7379461;19;19914;-81
2023/01/18 01:51:50;;;;;;;;;;;;;;;2.04;79.97;95418.75;7377783;19;19951;-81
2023/01/18 01:54:20;;;;;;;;;;;;;;;2.04;79.97;95414.34;7374711;19;20333;-81
2023/01/18 01:56:46;;;;;;;;;;;;;;;2.05;80.01;95417.78;7372139;19;20372;-81
2023/01/18 01:59:13;;;;;;;;;;;;;;;2.08;79.95;95415.63;7376735;19;19919;-81
2023/01/18 02:01:42;;;;;;;;;;;;;;;1.94;80.19;95426.81;7376493;19;19923;-80
2023/01/18 02:04:09;;;;;;;;;;;;;;;1.82;80.23;95422.97;7377965;19;20269;-81
2023/01/18 02:06:36;;;;;;;;;;;;;;;1.69;80.54;95429.59;7374505;19;21577;-81
2023/01/18 02:09:07;;;;;;;;;;;;;;;1.94;80.23;95432.03;7373738;19;19927;-81
2023/01/18 02:11:34;;;;;;;;;;;;;;;1.95;79.96;95428.47;7373359;19;20405;-81
2023/01/18 02:14:02;;;;;;;;;;;;;;;1.87;80.43;95434.53;7374316;19;19941;-80
2023/01/18 02:16:32;;;;;;;;;;;;;;;1.92;80.48;95442.66;7377502;19;19933;-81
2023/01/18 02:19:18;;;;;;;;;;;;;;;2.01;80.32;95440.78;7378471;19;19961;-81
2023/01/18 02:22:07;;;;;;;;;;;;;;;1.88;80.30;95440.56;7377391;19;19926;-81
2023/01/18 02:24:38;;;;;;;;;;;;;;;1.91;80.21;95441.00;7374348;19;19918;-81
2023/01/18 02:27:17;;;;;;;;;;;;;;;1.91;80.15;95443.63;7377160;19;19919;-81
2023/01/18 02:29:55;;;;;;;;;;;;;;;1.75;80.62;95439.31;7369434;19;19911;-81
2023/01/18 02:32:31;;;;;;;;;;;;;;;1.79;80.54;95437.19;7376472;19;19914;-80
2023/01/18 02:35:06;;;;;;;;;;;;;;;1.90;80.34;95449.03;7375641;19;19922;-81
2023/01/18 02:37:52;;;;;;;;;;;;;;;2.00;80.22;95448.78;7374860;19;19937;-81
2023/01/18 02:40:30;;;;;;;;;;;;;;;1.73;80.75;95449.09;7377309;19;20223;-81
2023/01/18 02:48:31;;;;;;;;;;;;;;;1.97;80.26;95452.53;7374166;19;20303;-81
2023/01/18 02:50:57;;;;;;;;;;;;;;;1.77;80.95;95456.59;7375963;19;19910;-80
2023/01/18 02:53:24;;;;;;;;;;;;;;;1.79;80.68;95460.66;7380944;19;19919;-81
2023/01/18 02:55:53;;;;;;;;;;;;;;;1.79;80.72;95462.44;7376879;19;19919;-81
2023/01/18 02:58:22;;;;;;;;;;;;;;;1.80;80.65;95462.28;7376324;19;19919;-81
2023/01/18 03:00:53;;;;;;;;;;;;;;;1.86;80.40;95463.38;7375635;19;19914;-81
2023/01/18 03:03:20;;;;;;;;;;;;;;;1.82;80.71;95462.91;7372143;19;19914;-81
2023/01/18 03:05:47;;;;;;;;;;;;;;;1.98;80.37;95459.38;7373658;19;19918;-81
2023/01/18 03:08:32;;;;;;;;;;;;;;;1.92;80.32;95455.69;7375683;19;19929;-81
2023/01/18 03:10:59;;;;;;;;;;;;;;;2.07;80.25;95452.31;7379091;19;20351;-81
2023/01/18 03:13:47;;;;;;;;;;;;;;;1.89;80.20;95460.41;7376839;19;19990;-81
2023/01/18 03:16:21;;;;;;;;;;;;;;;1.60;80.97;95459.28;7375205;19;19919;-81
2023/01/18 03:19:00;;;;;;;;;;;;;;;1.56;81.23;95463.22;7367928;19;19928;-81
2023/01/18 03:21:29;;;;;;;;;;;;;;;1.77;80.79;95467.03;7374252;19;19959;-81
2023/01/18 03:23:55;;;;;;;;;;;;;;;1.83;80.71;95476.75;7372079;19;20192;-81
2023/01/18 03:26:22;;;;;;;;;;;;;;;1.77;80.71;95480.06;7390545;19;19941;-82
2023/01/18 03:34:37;;;;;;;;;;;;;;;1.59;80.82;95482.94;7386813;19;19930;-81
2023/01/18 03:37:07;;;;;;;;;;;;;;;1.84;80.38;95475.75;7386912;19;19928;-81
2023/01/18 03:39:44;;;;;;;;;;;;;;;1.81;80.64;95478.72;7386842;19;19914;-81
2023/01/18 03:42:18;;;;;;;;;;;;;;;1.61;81.19;95479.16;7388466;19;19924;-81
2023/01/18 03:44:46;;;;;;;;;;;;;;;1.63;81.39;95482.38;7386112;19;19947;-82
2023/01/18 03:47:13;;;;;;;;;;;;;;;1.51;81.73;95489.78;7387118;19;19919;-82
2023/01/18 03:49:39;;;;;;;;;;;;;;;1.57;81.50;95495.31;7386305;19;19929;-81
2023/01/18 03:52:15;;;;;;;;;;;;;;;1.74;81.20;95492.44;7386221;19;19919;-82
2023/01/18 03:54:54;;;;;;;;;;;;;;;1.74;80.93;95497.66;7387918;19;19921;-81
2023/01/18 03:57:31;;;;;;;;;;;;;;;1.74;81.04;95505.47;7386471;19;20381;-82
2023/01/18 03:59:57;;;;;;;;;;;;;;;1.80;81.06;95505.78;7390198;19;20303;-82
2023/01/18 04:02:25;;;;;;;;;;;;;;;1.94;80.44;95505.03;7387680;19;19947;-82
2023/01/18 04:04:56;;;;;;;;;;;;;;;1.62;81.09;95509.44;7387656;19;19943;-82
2023/01/18 04:07:23;;;;;;;;;;;;;;;1.71;80.76;95505.81;7385115;19;19918;-82
2023/01/18 04:09:50;;;;;;;;;;;;;;;1.75;80.85;95509.69;7384802;19;19925;-82
2023/01/18 04:12:17;;;;;;;;;;;;;;;1.74;80.84;95507.28;7386115;19;20193;-82
2023/01/18 04:14:43;;;;;;;;;;;;;;;1.74;80.76;95505.47;7386689;19;19929;-82
2023/01/18 04:17:10;;;;;;;;;;;;;;;1.85;80.71;95512.09;7387776;19;19922;-82
2023/01/18 04:19:39;;;;;;;;;;;;;;;1.40;81.41;95507.59;7385428;19;20322;-81
2023/01/18 04:22:06;;;;;;;;;;;;;;;1.42;81.82;95508.22;7389685;19;20187;-82
2023/01/18 04:24:35;;;;;;;;;;;;;;;1.37;81.63;95506.16;7386045;19;19943;-81
2023/01/18 04:27:01;;;;;;;;;;;;;;;1.31;82.12;95517.22;7386676;19;20292;-81
2023/01/18 04:29:28;;;;;;;;;;;;;;;1.52;81.83;95520.06;7387876;19;19930;-82
2023/01/18 04:31:55;;;;;;;;;;;;;;;1.39;82.16;95511.16;7391397;19;19911;-82
2023/01/18 04:34:21;;;;;;;;;;;;;;;1.40;81.96;95520.63;7386939;19;19918;-82
2023/01/18 04:36:50;;;;;;;;;;;;;;;1.54;81.78;95519.91;7378250;19;19982;-82
2023/01/18 04:39:17;;;;;;;;;;;;;;;1.64;81.18;95524.91;7383614;19;19926;-81
2023/01/18 04:41:44;;;;;;;;;;;;;;;1.60;81.29;95524.44;7379491;19;19926;-81
2023/01/18 04:44:10;;;;;;;;;;;;;;;1.52;81.37;95529.69;7378729;19;19930;-81
2023/01/18 04:46:37;;;;;;;;;;;;;;;1.61;81.31;95538.28;7381213;19;20386;-82
2023/01/18 04:49:04;;;;;;;;;;;;;;;1.41;81.63;95536.06;7384968;19;20273;-81
2023/01/18 04:51:31;;;;;;;;;;;;;;;1.35;82.09;95538.56;7381492;19;19938;-82
2023/01/18 04:53:58;;;;;;;;;;;;;;;1.22;82.38;95554.69;7382470;19;19921;-82
2023/01/18 04:56:25;;;;;;;;;;;;;;;1.41;81.94;95553.50;7377203;19;20009;-82
2023/01/18 04:58:52;;;;;;;;;;;;;;;1.53;81.62;95562.59;7374812;19;22578;-82
2023/01/18 05:01:19;;;;;;;;;;;;;;;1.13;82.30;95551.28;7382063;19;19919;-82
2023/01/18 05:03:46;;;;;;;;;;;;;;;1.14;82.70;95567.75;7377541;19;19918;-81
2023/01/18 05:06:14;;;;;;;;;;;;;;;1.39;82.39;95566.69;7382046;19;19930;-82
2023/01/18 05:08:41;;;;;;;;;;;;;;;1.56;81.58;95575.28;7379700;19;19934;-82
2023/01/18 05:11:08;;;;;;;;;;;;;;;1.53;81.49;95580.81;7384664;19;19934;-82
2023/01/18 05:13:35;;;;;;;;;;;;;;;1.15;82.12;95585.78;7377693;19;19925;-82
2023/01/18 05:16:02;;;;;;;;;;;;;;;1.48;81.52;95588.34;7376825;19;20348;-82
2023/01/18 05:18:31;;;;;;;;;;;;;;;1.34;81.71;95600.22;7371213;19;19914;-82
2023/01/18 05:20:58;;;;;;;;;;;;;;;1.26;81.70;95608.91;7377008;19;21559;-83
2023/01/18 05:23:24;;;;;;;;;;;;;;;1.00;82.50;95611.69;7372169;19;20028;-83
2023/01/18 05:25:51;;;;;;;;;;;;;;;1.19;82.03;95614.94;7379687;19;19922;-81
2023/01/18 05:28:18;;;;;;;;;;;;;;;1.07;82.12;95630.88;7380616;19;20250;-82
2023/01/18 05:30:46;;;;;;;;;;;;;;;1.26;81.93;95629.75;7376573;19;19914;-82
2023/01/18 05:33:13;;;;;;;;;;;;;;;1.36;81.80;95639.16;7376874;19;19919;-82
2023/01/18 05:35:39;;;;;;;;;;;;;;;1.15;81.45;95637.06;7375530;19;19925;-83
2023/01/18 05:38:06;;;;;;;;;;;;;;;1.17;81.72;95650.72;7380601;19;19923;-81
2023/01/18 05:40:33;;;;;;;;;;;;;;;1.21;81.72;95641.59;7380337;19;19919;-81
2023/01/18 05:42:59;;;;;;;;;;;;;;;1.20;81.85;95661.63;7382894;19;20395;-82
2023/01/18 05:45:26;;;;;;;;;;;;;;;1.19;81.83;95657.41;7379818;19;20357;-82
2023/01/18 05:47:53;;;;;;;;;;;;;;;1.37;81.57;95669.41;7377717;19;20375;-82
2023/01/18 05:50:19;;;;;;;;;;;;;;;1.18;81.76;95665.38;7375448;19;19919;-82
2023/01/18 05:52:46;;;;;;;;;;;;;;;1.04;82.30;95678.06;7379027;19;19922;-82
2023/01/18 05:55:14;;;;;;;;;;;;;;;1.04;81.82;95677.25;7382138;19;19918;-82
2023/01/18 05:57:41;;;;;;;;;;;;;;;1.14;81.63;95677.91;7375944;19;19942;-82
2023/01/18 06:00:08;;;;;;;;;;;;;;;1.20;81.64;95677.25;7381688;19;20357;-82
2023/01/18 06:02:37;;;;;;;;;;;;;;;1.28;81.18;95689.47;7377427;19;20357;-82
2023/01/18 06:05:04;;;;;;;;;;;;;;;1.18;81.63;95696.63;7376920;19;19922;-81
2023/01/18 06:07:31;;;;;;;;;;;;;;;1.27;81.25;95708.69;7380988;19;19917;-82
2023/01/18 06:09:58;;;;;;;;;;;;;;;1.35;81.41;95716.47;7386128;19;19918;-82
2023/01/18 06:12:24;;;;;;;;;;;;;;;1.19;81.35;95722.50;7383375;19;20245;-82
2023/01/18 06:14:51;;;;;;;;;;;;;;;1.22;81.46;95727.38;7380144;19;23239;-82
2023/01/18 06:17:17;;;;;;;;;;;;;;;1.21;81.32;95732.75;7379854;19;19930;-82
2023/01/18 06:19:44;;;;;;;;;;;;;;;1.31;81.28;95734.22;7377592;19;19922;-81
2023/01/18 06:22:11;;;;;;;;;;;;;;;1.46;81.01;95741.38;7359349;19;20609;-82
2023/01/18 06:24:37;;;;;;;;;;;;;;;1.53;80.57;95751.00;7373818;19;19937;-82
2023/01/18 06:27:04;;;;;;;;;;;;;;;1.55;80.68;95748.22;7378375;19;20287;-83
2023/01/18 06:29:31;;;;;;;;;;;;;;;1.42;80.94;95758.31;7377757;19;19959;-83
2023/01/18 06:31:57;;;;;;;;;;;;;;;1.41;80.87;95767.13;7374551;19;19914;-83
2023/01/18 06:34:24;;;;;;;;;;;;;;;1.13;81.64;95770.00;7377318;19;19927;-82
2023/01/18 06:36:50;;;;;;;;;;;;;;;1.45;80.92;95776.22;7372254;19;19933;-82
2023/01/18 06:39:17;;;;;;;;;;;;;;;1.45;81.07;95776.22;7375863;19;19907;-82
2023/01/18 06:41:44;;;;;;;;;;;;;;;1.56;80.70;95777.72;7374696;19;19926;-83
2023/01/18 06:44:10;;;;;;;;;;;;;;;1.44;80.90;95780.63;7378570;19;19919;-83
2023/01/18 06:46:37;;;;;;;;;;;;;;;1.42;81.03;95784.34;7378585;19;20361;-82
2023/01/18 06:49:03;;;;;;;;;;;;;;;1.29;81.75;95790.03;7383289;19;19982;-83
2023/01/18 06:51:30;;;;;;;;;;;;;;;1.16;81.82;95790.53;7382875;19;19918;-82
2023/01/18 06:53:57;;;;;;;;;;;;;;;1.15;81.77;95795.91;7380303;19;19927;-82
2023/01/18 06:56:25;;;;;;;;;;;;;;;1.17;81.79;95797.38;7378985;19;19918;-82
2023/01/18 06:58:54;;;;;;;;;;;;;;;1.28;81.69;95804.88;7376014;19;19938;-83
2023/01/18 07:01:21;;;;;;;;;;;;;;;1.30;81.51;95808.13;7382553;19;19919;-82
2023/01/18 07:03:47;;;;;;;;;;;;;;;0.88;82.19;95814.22;7380140;19;19974;-82
2023/01/18 07:06:17;;;;;;;;;;;;;;;1.01;81.67;95818.97;7376923;19;19918;-82
2023/01/18 07:08:44;;;;;;;;;;;;;;;1.07;82.22;95814.94;7375234;19;20394;-82
2023/01/18 07:11:13;;;;;;;;;;;;;;;1.04;82.58;95823.88;7380231;19;19927;-82
2023/01/18 07:13:42;;;;;;;;;;;;;;;1.26;82.02;95821.63;7370591;19;19926;-83
2023/01/18 07:16:16;;;;;;;;;;;;;;;1.23;81.51;95822.75;7379468;19;19918;-82
2023/01/18 07:18:45;;;;;;;;;;;;;;;1.00;82.10;95834.75;7377373;19;19930;-82
2023/01/18 07:21:12;;;;;;;;;;;;;;;1.15;81.88;95840.97;7383379;19;19918;-82
2023/01/18 07:23:41;;;;;;;;;;;;;;;1.03;81.90;95856.09;7382106;19;19941;-82
2023/01/18 07:26:08;;;;;;;;;;;;;;;1.05;81.93;95855.91;7379910;19;19922;-82
2023/01/18 07:28:35;;;;;;;;;;;;;;;1.05;82.24;95859.38;7371548;19;19925;-82
2023/01/18 07:31:02;;;;;;;;;;;;;;;1.21;82.05;95863.81;7378935;19;19911;-83
2023/01/18 07:33:29;;;;;;;;;;;;;;;1.05;82.01;95868.94;7380350;19;19914;-82
2023/01/18 07:35:56;;;;;;;;;;;;;;;1.05;82.06;95871.53;7381220;19;19922;-83
2023/01/18 07:38:23;;;;;;;;;;;;;;;1.21;81.84;95881.19;7380307;19;19967;-82
2023/01/18 07:40:56;;;;;;;;;;;;;;;0.92;82.47;95894.59;7382421;19;19944;-82
2023/01/18 07:43:23;;;;;;;;;;;;;;;0.83;82.68;95894.56;7385758;19;20344;-81
2023/01/18 07:45:53;;;;;;;;;;;;;;;0.83;82.31;95899.78;7378480;19;19915;-82
2023/01/18 07:48:20;;;;;;;;;;;;;;;0.90;82.34;95909.59;7375652;19;19923;-81
2023/01/18 07:51:00;;;;;;;;;;;;;;;0.89;82.57;95903.53;7377265;19;19919;-82
2023/01/18 07:53:27;;;;;;;;;;;;;;;0.87;82.42;95915.91;7381030;19;20396;-82
2023/01/18 07:55:59;;;;;;;;;;;;;;;0.79;82.78;95914.09;7383203;19;19923;-82
2023/01/18 07:58:26;;;;;;;;;;;;;;;1.10;82.38;95921.34;7378585;19;19923;-82
2023/01/18 08:00:53;;;;;;;;;;;;;;;0.79;82.53;95924.50;7379029;19;19986;-82
2023/01/18 08:03:20;;;;;;;;;;;;;;;0.63;83.00;95934.78;7373436;19;19925;-81
2023/01/18 08:05:46;;;;;;;;;;;;;;;0.75;82.75;95940.56;7374028;19;19919;-82
2023/01/18 08:08:17;;;;;;;;;;;;;;;1.07;82.51;95945.09;7381021;19;20068;-82
2023/01/18 08:10:43;;;;;;;;;;;;;;;0.71;82.56;95944.44;7377801;19;19918;-81
2023/01/18 08:13:10;;;;;;;;;;;;;;;0.81;82.53;95945.97;7386760;19;19917;-82
2023/01/18 08:15:37;;;;;;;;;;;;;;;0.60;82.57;95945.50;7382393;19;19922;-81
2023/01/18 08:18:04;;;;;;;;;;;;;;;0.85;82.57;95960.31;7387340;19;19982;-82
2023/01/18 08:20:30;;;;;;;;;;;;;;;0.80;82.32;95962.56;7383586;19;19959;-81
2023/01/18 08:22:58;;;;;;;;;;;;;;;0.87;82.59;95968.78;7385350;19;19911;-82
2023/01/18 08:25:28;;;;;;;;;;;;;;;1.01;81.95;95971.78;7388507;19;19924;-82
2023/01/18 08:27:58;;;;;;;;;;;;;;;1.20;81.51;95975.94;7377915;19;19921;-82
2023/01/18 08:30:27;;;;;;;;;;;;;;;0.88;81.86;95983.41;7384828;19;19982;-82
2023/01/18 08:32:54;;;;;;;;;;;;;;;0.77;82.01;95983.69;7387565;19;19930;-81
2023/01/18 08:35:22;;;;;;;;;;;;;;;0.88;81.94;95999.03;7388538;19;19918;-82
2023/01/18 08:37:52;;;;;;;;;;;;;;;0.65;82.60;96000.50;7388119;19;20455;-81
2023/01/18 08:40:19;;;;;;;;;;;;;;;0.63;82.80;96002.44;7382606;19;19918;-81
2023/01/18 08:42:46;;;;;;;;;;;;;;;0.79;82.31;96001.72;7383616;19;19926;-81
2023/01/18 08:45:13;;;;;;;;;;;;;;;0.78;81.82;96019.16;7381455;19;20373;-81
2023/01/18 08:47:42;;;;;;;;;;;;;;;0.75;81.86;96022.06;7377077;19;19919;-81
2023/01/18 08:50:09;;;;;;;;;;;;;;;0.60;82.16;96028.78;7384282;19;19940;-82
2023/01/18 08:52:35;;;;;;;;;;;;;;;0.64;82.14;96037.94;7380569;19;19943;-81
2023/01/18 08:55:02;;;;;;;;;;;;;;;0.87;82.43;96040.84;7376687;19;19915;-82
2023/01/18 08:57:30;;;;;;;;;;;;;;;0.85;81.58;96040.19;7380719;19;19923;-81
2023/01/18 08:59:56;;;;;;;;;;;;;;;0.96;81.75;96052.94;7381971;19;19918;-82
2023/01/18 09:02:23;;;;;;;;;;;;;;;1.10;81.49;96057.56;7381029;19;19915;-82
2023/01/18 09:04:51;;;;;;;;;;;;;;;0.72;82.53;96052.78;7381977;19;19925;-81
2023/01/18 09:07:18;;;;;;;;;;;;;;;1.01;81.81;96058.50;7383533;19;20568;-82
2023/01/18 09:09:44;;;;;;;;;;;;;;;1.01;81.48;96063.72;7380931;19;19921;-82
2023/01/18 09:12:11;;;;;;;;;;;;;;;0.88;81.83;96069.31;7380267;19;20253;-81
2023/01/18 09:14:38;;;;;;;;;;;;;;;1.19;81.02;96074.09;7382026;19;19918;-81
2023/01/18 09:17:05;;;;;;;;;;;;;;;0.97;81.89;96074.59;7384066;19;19919;-82
2023/01/18 09:19:32;;;;;;;;;;;;;;;1.05;81.03;96085.03;7382155;19;19919;-81
2023/01/18 09:21:59;;;;;;;;;;;;;;;1.24;81.34;96091.88;7382963;19;19934;-82
2023/01/18 09:24:26;;;;;;;;;;;;;;;1.24;80.80;96090.06;7382533;19;19978;-81
2023/01/18 09:26:52;;;;;;;;;;;;;;;1.09;81.28;96096.81;7375577;19;19918;-81
2023/01/18 09:29:19;;;;;;;;;;;;;;;0.85;81.57;96087.84;7379939;19;20654;-81
2023/01/18 09:31:47;;;;;;;;;;;;;;;0.82;81.45;96102.97;7387142;19;19922;-82
2023/01/18 09:34:15;;;;;;;;;;;;;;;0.86;81.95;96112.91;7387092;19;19914;-81
2023/01/18 09:36:46;;;;;;;;;;;;;;;1.10;81.62;96116.66;7378852;19;19942;-81
2023/01/18 09:39:12;;;;;;;;;;;;;;;1.13;81.51;96121.56;7380194;19;21083;-82
2023/01/18 09:41:41;;;;;;;;;;;;;;;0.97;81.29;96130.06;7380156;19;20560;-81
2023/01/18 09:44:20;;;;;;;;;;;;;;;0.95;81.53;96139.00;7379205;19;19922;-81
2023/01/18 09:46:48;;;;;;;;;;;;;;;0.91;81.92;96146.31;7375427;19;19926;-82
2023/01/18 09:49:20;;;;;;;;;;;;;;;1.22;80.97;96146.69;7380369;19;19926;-82
2023/01/18 09:51:59;;;;;;;;;;;;;;;1.12;81.17;96158.19;7371493;19;19946;-82
2023/01/18 09:54:29;;;;;;;;;;;;;;;1.05;81.26;96144.94;7381681;19;19979;-82
2023/01/18 09:57:15;;;;;;;;;;;;;;;1.05;81.61;96161.41;7380357;19;19978;-81
2023/01/18 09:59:44;;;;;;;;;;;;;;;0.76;82.08;96156.41;7377157;19;20542;-84
2023/01/18 10:02:18;;;;;;;;;;;;;;;1.04;81.70;96161.53;7375476;19;19922;-82
2023/01/18 10:04:46;;;;;;;;;;;;;;;0.81;82.49;96161.19;7377175;19;19914;-81
2023/01/18 10:07:16;;;;;;;;;;;;;;;0.93;81.64;96169.59;7373285;19;19915;-81
2023/01/18 10:09:48;;;;;;;;;;;;;;;0.63;82.08;96171.56;7375665;19;19926;-80
2023/01/18 10:12:30;;;;;;;;;;;;;;;0.67;82.38;96169.53;7379320;19;19925;-80
2023/01/18 10:15:00;;;;;;;;;;;;;;;1.04;81.76;96175.38;7374288;19;19928;-80
2023/01/18 10:17:37;;;;;;;;;;;;;;;0.57;82.34;96185.19;7378091;19;19911;-79
2023/01/18 10:20:19;;;;;;;;;;;;;;;0.85;81.99;96184.16;7377596;19;20344;-80
2023/01/18 10:22:48;;;;;;;;;;;;;;;1.20;81.24;96190.31;7376678;19;20356;-80
2023/01/18 10:25:18;;;;;;;;;;;;;;;0.80;81.51;96185.59;7377295;19;19929;-80
2023/01/18 10:27:44;;;;;;;;;;;;;;;1.04;81.42;96187.56;7375766;19;19925;-80
2023/01/18 10:30:38;;;;;;;;;;;;;;;1.05;81.26;96192.66;7382115;19;19918;-80
2023/01/18 10:33:20;;;;;;;;;;;;;;;1.00;80.97;96197.47;7377367;19;19937;-80
2023/01/18 10:35:48;;;;;;;;;;;;;;;1.01;81.27;96198.28;7368315;19;20792;-80
2023/01/18 10:38:16;;;;;;;;;;;;;;;1.17;81.12;96197.63;7378375;19;19926;-80
2023/01/18 10:40:45;;;;;;;;;;;;;;;1.25;80.86;96208.91;7376548;19;19921;-80
2023/01/18 10:43:14;;;;;;;;;;;;;;;1.12;81.00;96211.06;7375805;19;19926;-80
2023/01/18 10:45:40;;;;;;;;;;;;;;;0.87;81.37;96213.47;7382894;19;19938;-80
2023/01/18 10:48:16;;;;;;;;;;;;;;;1.10;81.39;96211.22;7376875;19;19923;-80
2023/01/18 10:50:44;;;;;;;;;;;;;;;0.97;81.46;96213.38;7372575;19;20633;-80
2023/01/18 10:53:23;;;;;;;;;;;;;;;0.79;82.06;96220.38;7379316;19;20723;-80
2023/01/18 10:55:53;;;;;;;;;;;;;;;0.95;81.64;96223.16;7384055;19;20025;-80
2023/01/18 10:58:23;;;;;;;;;;;;;;;1.15;81.30;96226.41;7375452;19;19930;-80
2023/01/18 11:00:53;;;;;;;;;;;;;;;1.46;80.54;96226.81;7381648;19;19974;-80
2023/01/18 11:03:21;;;;;;;;;;;;;;;1.18;81.19;96236.50;7377995;19;19934;-80
2023/01/18 11:05:48;;;;;;;;;;;;;;;1.16;81.46;96228.06;7378208;19;19921;-81
2023/01/18 11:08:20;;;;;;;;;;;;;;;1.40;80.80;96234.44;7372421;19;20356;-80
2023/01/18 11:10:56;;;;;;;;;;;;;;;1.00;81.06;96241.75;7378243;19;19919;-80
2023/01/18 11:13:24;;;;;;;;;;;;;;;1.30;81.25;96237.94;7379021;19;20096;-80
2023/01/18 11:15:58;;;;;;;;;;;;;;;1.23;80.79;96243.88;7373574;19;19930;-80
2023/01/18 11:18:31;;;;;;;;;;;;;;;1.26;80.89;96243.59;7376981;19;19915;-80
2023/01/18 11:20:58;;;;;;;;;;;;;;;1.49;80.64;96247.34;7381273;19;19911;-80
2023/01/18 11:23:29;;;;;;;;;;;;;;;1.60;80.49;96251.50;7376142;19;22220;-80
2023/01/18 11:25:55;;;;;;;;;;;;;;;1.29;80.54;96249.31;7376404;19;19926;-80
2023/01/18 11:28:22;;;;;;;;;;;;;;;1.30;80.62;96253.56;7382483;19;19918;-80
2023/01/18 11:30:56;;;;;;;;;;;;;;;1.24;80.49;96261.97;7382821;19;19915;-81
2023/01/18 11:33:24;;;;;;;;;;;;;;;1.56;79.74;96267.63;7378400;19;19914;-81
2023/01/18 11:35:55;;;;;;;;;;;;;;;1.25;80.76;96271.41;7373889;19;21077;-82
2023/01/18 11:38:25;;;;;;;;;;;;;;;0.93;81.38;96274.53;7374670;19;19937;-81
2023/01/18 11:41:10;;;;;;;;;;;;;;;1.23;80.82;96268.13;7370285;19;19919;-82
2023/01/18 11:43:38;;;;;;;;;;;;;;;1.20;81.42;96273.66;7375313;19;19923;-81
2023/01/18 11:46:23;;;;;;;;;;;;;;;0.93;81.06;96271.13;7382181;19;19918;-80
2023/01/18 11:48:57;;;;;;;;;;;;;;;0.79;81.99;96286.28;7385085;19;19922;-81
2023/01/18 11:51:24;;;;;;;;;;;;;;;0.92;81.60;96272.88;7380322;19;20333;-81
2023/01/18 11:53:53;;;;;;;;;;;;;;;1.06;81.09;96284.59;7385780;19;19978;-81
2023/01/18 11:56:26;;;;;;;;;;;;;;;1.10;80.97;96276.31;7384560;19;19958;-80
2023/01/18 11:58:52;;;;;;;;;;;;;;;1.08;80.84;96283.47;7381276;19;19914;-80
2023/01/18 12:01:40;;;;;;;;;;;;;;;0.86;80.89;96286.50;7382280;19;19918;-81
2023/01/18 12:04:06;;;;;;;;;;;;;;;1.33;80.87;96295.91;7377183;19;19919;-82
2023/01/18 12:06:53;;;;;;;;;;;;;;;1.26;80.02;96293.06;7380765;19;19925;-81
2023/01/18 12:09:31;;;;;;;;;;;;;;;1.01;80.93;96298.06;7384354;19;19925;-82
2023/01/18 12:12:05;;;;;;;;;;;;;;;1.09;81.00;96302.53;7378555;19;19989;-80
2023/01/18 12:14:47;;;;;;;;;;;;;;;0.88;80.74;96313.22;7379120;19;20386;-82
2023/01/18 12:17:23;;;;;;;;;;;;;;;1.29;80.78;96311.84;7379881;19;19978;-81
2023/01/18 12:19:57;;;;;;;;;;;;;;;1.00;80.97;96319.84;7386334;19;19918;-81
2023/01/18 12:22:35;;;;;;;;;;;;;;;1.06;80.79;96316.66;7381325;19;19929;-81
2023/01/18 12:25:20;;;;;;;;;;;;;;;1.14;80.48;96318.53;7382476;19;20156;-81
2023/01/18 12:28:06;;;;;;;;;;;;;;;0.92;81.05;96326.75;7384571;19;19915;-81
2023/01/18 12:30:32;;;;;;;;;;;;;;;1.03;80.90;96332.56;7380834;19;19970;-81
2023/01/18 12:33:04;;;;;;;;;;;;;;;0.95;81.24;96336.84;7381556;19;19915;-81
2023/01/18 12:35:41;;;;;;;;;;;;;;;1.13;80.76;96342.91;7384713;19;19926;-81
2023/01/18 12:38:07;;;;;;;;;;;;;;;1.02;80.57;96346.53;7386020;19;19918;-81
2023/01/18 12:40:43;;;;;;;;;;;;;;;1.20;80.85;96351.78;7391275;19;19914;-81
2023/01/18 12:43:09;;;;;;;;;;;;;;;1.29;80.23;96355.28;7388477;19;19915;-81
2023/01/18 12:45:48;;;;;;;;;;;;;;;1.22;80.10;96349.88;7390334;19;19923;-81
2023/01/18 12:48:15;;;;;;;;;;;;;;;1.35;79.78;96359.94;7387051;19;19943;-81
2023/01/18 12:50:42;;;;;;;;;;;;;;;1.47;79.72;96363.13;7387053;19;20024;-82
2023/01/18 12:53:21;;;;;;;;;;;;;;;1.49;79.75;96363.81;7387912;19;19917;-82
2023/01/18 12:55:48;;;;;;;;;;;;;;;1.15;79.39;96374.84;7387767;19;19915;-81
2023/01/18 12:58:17;;;;;;;;;;;;;;;1.16;79.71;96365.25;7377462;19;19929;-82
2023/01/18 13:00:45;;;;;;;;;;;;;;;1.18;80.00;96374.56;7379400;19;19947;-82
2023/01/18 13:03:13;;;;;;;;;;;;;;;1.56;78.92;96369.25;7399555;19;19915;-82
2023/01/18 13:05:51;;;;;;;;;;;;;;;1.90;78.94;96379.81;7399389;19;19951;-82
2023/01/18 13:08:22;;;;;;;;;;;;;;;1.68;78.52;96387.09;7389748;19;19918;-82
2023/01/18 13:10:49;;;;;;;;;;;;;;;1.72;78.36;96380.63;7386522;19;19935;-82
2023/01/18 13:13:17;;;;;;;;;;;;;;;1.24;78.77;96384.41;7386315;19;19914;-82
2023/01/18 13:15:46;;;;;;;;;;;;;;;1.20;79.65;96393.47;7375361;19;19910;-82
2023/01/18 13:18:14;;;;;;;;;;;;;;;1.23;78.84;96398.38;7385074;19;19922;-82
2023/01/18 13:20:57;;;;;;;;;;;;;;;1.22;78.56;96401.16;7384978;19;19947;-83
2023/01/18 13:23:26;;;;;;;;;;;;;;;1.44;77.86;96402.50;7386260;19;19918;-82
2023/01/18 13:25:59;;;;;;;;;;;;;;;1.47;78.28;96407.41;7390238;19;19922;-82
2023/01/18 13:28:26;;;;;;;;;;;;;;;1.51;78.49;96406.97;7388118;19;20626;-83
2023/01/18 13:30:55;;;;;;;;;;;;;;;1.38;78.68;96416.94;7381107;19;19918;-82
2023/01/18 13:33:22;;;;;;;;;;;;;;;1.51;78.93;96414.00;7392442;19;19922;-82
2023/01/18 13:36:18;;;;;;;;;;;;;;;1.57;78.38;96413.38;7382923;19;19911;-82
2023/01/18 13:38:51;;;;;;;;;;;;;;;1.83;77.95;96426.50;7380449;19;19926;-82
2023/01/18 13:41:24;;;;;;;;;;;;;;;1.65;78.24;96425.69;7386505;19;20669;-82